createdAt,value
2023-04-27T00:00:40.388Z,102127.53
2023-04-27T00:03:07.749Z,102136.50
2023-04-27T00:05:39.824Z,102155.09
2023-04-27T00:08:07.136Z,102152.63
2023-04-27T00:10:37.218Z,102157.09
2023-04-27T00:13:04.106Z,102142.22
2023-04-27T00:15:31.318Z,102156.53
2023-04-27T00:18:01.952Z,102093.19
2023-04-27T00:20:28.768Z,102144.59
2023-04-27T00:22:58.907Z,102149.91
2023-04-27T00:25:26.256Z,102157.94
2023-04-27T00:27:53.448Z,102139.53
2023-04-27T00:30:22.765Z,102111.50
2023-04-27T00:32:52.449Z,102111.84
2023-04-27T00:35:22.014Z,102108.91
2023-04-27T00:37:52.479Z,102092.19
2023-04-27T00:40:22.241Z,102107.28
2023-04-27T00:42:49.206Z,102135.34
2023-04-27T00:45:16.190Z,102155.06
2023-04-27T00:47:44.628Z,102156.25
2023-04-27T00:50:12.732Z,102132.72
2023-04-27T00:52:47.733Z,102145.94
2023-04-27T00:55:14.593Z,102132.22
2023-04-27T00:57:41.821Z,102109.59
2023-04-27T01:00:12.188Z,102136.06
2023-04-27T01:02:40.346Z,102112.19
2023-04-27T01:05:11.619Z,102123.56
2023-04-27T01:07:41.989Z,102127.19
2023-04-27T01:10:09.566Z,102110.56
2023-04-27T01:12:41.340Z,102129.38
2023-04-27T01:15:09.062Z,102111.19
2023-04-27T01:17:38.240Z,102145.50
2023-04-27T01:20:10.697Z,102105.09
2023-04-27T01:22:38.336Z,102136.88
2023-04-27T01:25:08.478Z,102137.97
2023-04-27T01:27:38.198Z,102139.94
2023-04-27T01:30:06.575Z,102149.41
2023-04-27T01:32:37.534Z,102150.25
2023-04-27T01:35:04.858Z,102148.47
2023-04-27T01:37:32.224Z,102120.63
2023-04-27T01:39:59.518Z,102107.41
2023-04-27T01:42:26.972Z,102111.00
2023-04-27T01:44:54.717Z,102139.06
2023-04-27T01:47:21.740Z,102102.28
2023-04-27T01:49:48.989Z,102136.66
2023-04-27T01:52:19.030Z,102134.91
2023-04-27T01:54:48.193Z,102103.06
2023-04-27T01:57:17.908Z,102101.50
2023-04-27T01:59:44.989Z,102139.22
2023-04-27T02:02:14.654Z,102135.66
2023-04-27T02:04:45.615Z,102109.09
2023-04-27T02:07:12.762Z,102110.81
2023-04-27T02:09:40.113Z,102121.19
2023-04-27T02:12:07.173Z,102115.94
2023-04-27T02:14:39.124Z,102123.16
2023-04-27T02:17:06.593Z,102120.75
2023-04-27T02:19:33.759Z,102119.97
2023-04-27T02:22:01.043Z,102122.66
2023-04-27T02:24:34.089Z,102107.03
2023-04-27T02:27:01.170Z,102108.19
2023-04-27T02:29:32.269Z,102102.88
2023-04-27T02:32:01.909Z,102084.28
2023-04-27T02:34:31.134Z,102083.47
2023-04-27T02:37:03.566Z,102085.34
2023-04-27T02:39:30.497Z,102096.81
2023-04-27T02:41:57.328Z,102067.06
2023-04-27T02:44:24.412Z,102101.31
2023-04-27T02:46:53.699Z,102094.94
2023-04-27T02:49:21.131Z,102057.50
2023-04-27T02:51:49.368Z,102090.22
2023-04-27T02:54:16.543Z,102108.75
2023-04-27T02:56:44.143Z,102071.94
2023-04-27T02:59:14.198Z,102097.50
2023-04-27T03:01:46.200Z,102092.97
2023-04-27T03:04:14.899Z,102085.88
2023-04-27T03:06:44.417Z,102097.66
2023-04-27T03:09:15.614Z,102108.28
2023-04-27T03:11:50.106Z,102100.06
2023-04-27T03:14:17.379Z,102105.59
2023-04-27T03:16:50.635Z,102114.63
2023-04-27T03:19:26.457Z,102100.84
2023-04-27T03:21:56.128Z,102104.41
2023-04-27T03:24:28.337Z,101974.13
2023-04-27T03:26:58.658Z,102108.28
2023-04-27T03:29:26.376Z,102096.25
2023-04-27T03:31:58.506Z,102105.13
2023-04-27T03:34:25.636Z,102123.06
2023-04-27T03:36:57.119Z,102109.25
2023-04-27T03:39:39.612Z,102076.22
2023-04-27T03:42:15.070Z,102135.06
2023-04-27T03:44:50.263Z,102125.81
2023-04-27T03:47:25.636Z,102116.19
2023-04-27T03:49:59.035Z,102048.28
2023-04-27T03:52:29.093Z,101939.34
2023-04-27T03:55:00.947Z,102020.75
2023-04-27T03:57:30.452Z,102111.53
2023-04-27T04:00:01.348Z,102121.22
2023-04-27T04:02:31.567Z,102133.63
2023-04-27T04:04:58.920Z,102110.81
2023-04-27T04:07:26.189Z,102087.16
2023-04-27T04:09:53.149Z,102057.38
2023-04-27T04:12:20.480Z,102133.84
2023-04-27T04:14:50.476Z,102128.56
2023-04-27T04:17:17.783Z,102126.13
2023-04-27T04:19:45.207Z,102136.84
2023-04-27T04:22:15.935Z,102099.28
2023-04-27T04:24:45.744Z,102138.81
2023-04-27T04:27:12.874Z,102143.19
2023-04-27T04:29:40.831Z,102130.91
2023-04-27T04:32:12.752Z,102146.63
2023-04-27T04:34:39.884Z,102137.09
2023-04-27T04:37:07.114Z,102151.88
2023-04-27T04:39:39.409Z,102101.84
2023-04-27T04:42:09.093Z,102146.50
2023-04-27T04:44:36.162Z,102155.00
2023-04-27T04:47:06.827Z,102119.22
2023-04-27T04:49:38.641Z,102154.78
2023-04-27T04:52:10.432Z,102148.31
2023-04-27T04:54:40.732Z,102083.13
2023-04-27T04:57:10.860Z,102150.13
2023-04-27T04:59:37.749Z,102155.84
2023-04-27T05:02:09.426Z,102135.13
2023-04-27T05:04:37.016Z,102131.59
2023-04-27T05:07:06.149Z,102143.75
2023-04-27T05:09:37.837Z,102147.50
2023-04-27T05:12:05.196Z,102147.19
2023-04-27T05:14:32.563Z,102106.38
2023-04-27T05:16:59.822Z,102071.09
2023-04-27T05:19:30.207Z,102141.44
2023-04-27T05:21:59.835Z,102154.72
2023-04-27T05:24:32.960Z,102050.66
2023-04-27T05:27:02.641Z,102137.19
2023-04-27T05:29:29.611Z,102136.31
2023-04-27T05:31:59.096Z,102139.63
2023-04-27T05:34:27.409Z,102103.16
2023-04-27T05:36:57.423Z,102111.41
2023-04-27T05:39:25.017Z,102142.94
2023-04-27T05:41:54.404Z,102114.13
2023-04-27T05:44:21.822Z,102110.59
2023-04-27T05:46:51.467Z,102142.50
2023-04-27T05:49:21.253Z,102127.59
2023-04-27T05:51:48.264Z,102139.69
2023-04-27T05:54:15.453Z,102147.44
2023-04-27T05:56:42.367Z,102116.94
2023-04-27T05:59:11.896Z,102135.44
2023-04-27T06:01:41.509Z,102136.00
2023-04-27T06:04:08.434Z,102129.91
2023-04-27T06:06:35.517Z,102127.50
2023-04-27T06:09:02.641Z,102104.75
2023-04-27T06:11:29.417Z,102117.84
2023-04-27T06:13:58.575Z,102130.41
2023-04-27T06:16:25.852Z,102123.19
2023-04-27T06:18:52.970Z,102130.50
2023-04-27T06:21:19.841Z,102133.97
2023-04-27T06:23:46.809Z,102118.31
2023-04-27T06:26:13.568Z,102128.09
2023-04-27T06:28:42.976Z,102104.50
2023-04-27T06:31:09.963Z,102120.72
2023-04-27T06:33:36.771Z,102128.53
2023-04-27T06:36:03.790Z,102127.03
2023-04-27T06:38:31.281Z,102125.03
2023-04-27T06:40:58.057Z,102116.75
2023-04-27T06:43:27.618Z,102115.19
2023-04-27T06:45:54.531Z,102130.59
2023-04-27T06:48:21.577Z,102119.50
2023-04-27T06:50:48.135Z,102099.06
2023-04-27T06:53:14.755Z,102117.81
2023-04-27T06:55:43.904Z,102121.00
2023-04-27T06:58:14.039Z,102121.66
2023-04-27T07:00:42.815Z,102128.38
2023-04-27T07:03:09.492Z,102123.06
2023-04-27T07:05:36.168Z,102120.88
2023-04-27T07:08:06.173Z,102118.50
2023-04-27T07:10:34.927Z,102126.69
2023-04-27T07:13:01.700Z,102114.72
2023-04-27T07:15:28.300Z,102122.97
2023-04-27T07:17:57.271Z,102121.84
2023-04-27T07:20:24.132Z,102127.09
2023-04-27T07:22:50.899Z,102116.09
2023-04-27T07:25:17.786Z,102114.97
2023-04-27T07:27:45.310Z,102130.41
2023-04-27T07:30:14.147Z,102109.50
2023-04-27T07:32:43.676Z,102124.94
2023-04-27T07:35:10.989Z,102116.28
2023-04-27T07:37:38.397Z,102125.31
2023-04-27T07:40:14.566Z,102114.28
2023-04-27T07:42:42.143Z,102123.81
2023-04-27T07:45:12.102Z,102116.31
2023-04-27T07:47:39.388Z,102135.13
2023-04-27T07:50:14.448Z,102129.00
2023-04-27T07:52:41.264Z,102135.25
2023-04-27T07:55:11.120Z,102135.25
2023-04-27T07:57:37.692Z,102132.47
2023-04-27T08:00:09.237Z,102120.41
2023-04-27T08:02:36.135Z,102117.84
2023-04-27T08:05:03.386Z,102131.34
2023-04-27T08:07:35.921Z,102131.63
2023-04-27T08:10:05.534Z,102130.00
2023-04-27T08:12:32.997Z,102127.03
2023-04-27T08:14:59.857Z,102134.97
2023-04-27T08:17:26.868Z,102133.38
2023-04-27T08:19:53.891Z,102100.69
2023-04-27T08:22:20.632Z,102140.84
2023-04-27T08:24:47.208Z,102148.81
2023-04-27T08:27:14.008Z,102135.31
2023-04-27T08:29:46.937Z,102130.47
2023-04-27T08:32:14.214Z,102093.69
2023-04-27T08:34:44.973Z,102120.81
2023-04-27T08:37:11.926Z,102111.97
2023-04-27T08:39:41.061Z,102093.00
2023-04-27T08:42:14.457Z,102108.47
2023-04-27T08:44:42.582Z,102102.63
2023-04-27T08:47:09.974Z,102117.88
2023-04-27T08:49:43.968Z,102111.13
2023-04-27T08:52:14.311Z,102108.19
2023-04-27T08:54:42.777Z,102110.59
2023-04-27T08:57:15.393Z,102123.88
2023-04-27T08:59:46.709Z,102115.78
2023-04-27T09:02:22.458Z,102121.63
2023-04-27T09:04:52.510Z,102118.47
2023-04-27T09:07:21.010Z,102117.63
2023-04-27T09:09:48.887Z,102120.97
2023-04-27T09:12:20.615Z,102119.91
2023-04-27T09:14:57.684Z,102111.72
2023-04-27T09:17:30.858Z,102115.06
2023-04-27T09:20:13.823Z,102116.69
2023-04-27T09:22:47.826Z,102110.41
2023-04-27T09:25:28.759Z,102124.69
2023-04-27T09:27:56.944Z,102124.38
2023-04-27T09:30:29.281Z,102103.00
2023-04-27T09:32:58.361Z,102115.22
2023-04-27T09:35:27.665Z,102114.09
2023-04-27T09:37:54.447Z,102102.56
2023-04-27T09:40:31.973Z,102097.53
2023-04-27T09:43:03.902Z,102054.25
2023-04-27T09:45:30.914Z,102102.28
2023-04-27T09:48:00.993Z,102103.41
2023-04-27T09:50:27.632Z,102102.03
2023-04-27T09:52:54.271Z,102097.59
2023-04-27T09:55:52.366Z,102095.66
2023-04-27T09:58:24.140Z,102100.25
2023-04-27T10:00:53.795Z,102101.34
2023-04-27T10:04:00.763Z,102094.50
2023-04-27T10:07:15.314Z,102095.69
2023-04-27T10:09:49.255Z,102092.19
2023-04-27T10:12:25.341Z,102092.47
2023-04-27T10:14:54.340Z,102080.19
2023-04-27T10:17:27.769Z,102102.16
2023-04-27T10:19:58.681Z,102087.09
2023-04-27T10:22:41.281Z,102091.66
2023-04-27T10:25:18.760Z,102060.78
2023-04-27T10:27:54.917Z,102088.13
2023-04-27T10:30:26.175Z,102093.00
2023-04-27T10:32:55.010Z,102089.44
2023-04-27T10:35:23.700Z,102099.31
2023-04-27T10:37:52.099Z,102059.84
2023-04-27T10:40:19.140Z,102085.94
2023-04-27T10:42:49.709Z,102048.66
2023-04-27T10:45:31.811Z,102081.38
2023-04-27T10:48:05.321Z,102074.28
2023-04-27T10:50:32.945Z,102079.69
2023-04-27T10:53:06.137Z,102071.44
2023-04-27T10:55:34.471Z,102077.03
2023-04-27T10:58:02.289Z,102076.34
2023-04-27T11:00:44.265Z,102072.03
2023-04-27T11:03:17.971Z,102059.84
2023-04-27T11:05:51.114Z,102071.00
2023-04-27T11:08:20.411Z,102017.72
2023-04-27T11:10:50.635Z,102054.06
2023-04-27T11:13:21.841Z,102052.38
2023-04-27T11:15:58.450Z,102057.44
2023-04-27T11:18:33.582Z,102044.16
2023-04-27T11:21:11.658Z,102046.34
2023-04-27T11:23:41.596Z,102041.03
2023-04-27T11:26:16.176Z,102037.41
2023-04-27T11:28:44.615Z,102041.25
2023-04-27T11:31:11.814Z,102038.34
2023-04-27T11:33:40.266Z,102028.19
2023-04-27T11:36:17.621Z,102030.19
2023-04-27T11:38:44.357Z,102030.41
2023-04-27T11:41:10.987Z,102023.31
2023-04-27T11:43:42.320Z,102029.63
2023-04-27T11:46:11.141Z,102033.88
2023-04-27T11:48:38.567Z,102022.00
2023-04-27T11:51:08.855Z,101982.03
2023-04-27T11:53:39.501Z,102019.28
2023-04-27T11:56:13.720Z,102028.09
2023-04-27T11:58:46.378Z,102017.69
2023-04-27T12:01:21.835Z,102021.69
2023-04-27T12:03:57.612Z,102012.41
2023-04-27T12:06:32.949Z,101952.00
2023-04-27T12:09:00.130Z,102029.47
2023-04-27T12:11:29.975Z,102026.78
2023-04-27T12:13:56.955Z,102008.88
2023-04-27T12:16:25.898Z,102004.16
2023-04-27T12:18:52.737Z,102011.94
2023-04-27T12:21:24.165Z,101994.44
2023-04-27T12:23:50.924Z,101985.50
2023-04-27T12:26:18.456Z,101982.44
2023-04-27T12:28:45.006Z,101998.19
2023-04-27T12:31:16.631Z,101983.88
2023-04-27T12:33:43.316Z,101976.56
2023-04-27T12:36:09.917Z,101988.75
2023-04-27T12:38:38.854Z,101988.50
2023-04-27T12:41:05.722Z,101984.59
2023-04-27T12:43:32.473Z,101987.88
2023-04-27T12:45:59.039Z,101976.16
2023-04-27T12:48:26.427Z,101996.31
2023-04-27T12:50:53.206Z,101976.81
2023-04-27T12:53:22.072Z,101982.91
2023-04-27T12:55:49.026Z,101988.19
2023-04-27T12:58:15.876Z,101981.31
2023-04-27T13:00:45.020Z,101962.84
2023-04-27T13:03:11.902Z,101946.31
2023-04-27T13:05:38.552Z,101955.59
2023-04-27T13:08:05.849Z,101961.78
2023-04-27T13:10:32.543Z,101957.00
2023-04-27T13:13:00.017Z,101963.94
2023-04-27T13:15:26.841Z,101962.69
2023-04-27T13:17:56.775Z,101960.50
2023-04-27T13:20:23.745Z,101965.91
2023-04-27T13:22:50.491Z,101969.34
2023-04-27T13:25:20.126Z,101958.81
2023-04-27T13:27:51.694Z,101952.66
2023-04-27T13:30:18.454Z,101950.91
2023-04-27T13:32:45.121Z,101954.50
2023-04-27T13:35:16.605Z,101940.81
2023-04-27T13:37:45.702Z,101899.88
2023-04-27T13:40:12.682Z,101941.50
2023-04-27T13:42:42.052Z,101939.28
2023-04-27T13:45:09.241Z,101925.09
2023-04-27T13:47:39.268Z,101932.25
2023-04-27T13:50:08.094Z,101923.72
2023-04-27T13:52:36.079Z,101897.44
2023-04-27T13:55:08.275Z,101921.41
2023-04-27T13:57:34.929Z,101924.09
2023-04-27T14:00:02.109Z,101880.16
2023-04-27T14:02:29.632Z,101909.84
2023-04-27T14:04:56.829Z,101906.31
2023-04-27T14:07:26.765Z,101914.72
2023-04-27T14:09:53.331Z,101892.47
2023-04-27T14:12:20.626Z,101900.56
2023-04-27T14:14:47.173Z,101885.34
2023-04-27T14:17:13.704Z,101903.91
2023-04-27T14:19:41.424Z,101889.03
2023-04-27T14:22:10.590Z,101874.25
2023-04-27T14:24:37.305Z,101815.50
2023-04-27T14:27:03.953Z,101872.94
2023-04-27T14:29:30.713Z,101824.53
2023-04-27T14:32:02.195Z,101886.00
2023-04-27T14:34:28.833Z,101873.31
2023-04-27T14:36:55.420Z,101763.81
2023-04-27T14:39:22.153Z,101864.63
2023-04-27T14:41:48.854Z,101872.50
2023-04-27T14:44:17.738Z,101859.22
2023-04-27T14:46:46.683Z,101847.59
2023-04-27T14:49:13.588Z,101833.78
2023-04-27T14:51:45.194Z,101849.19
2023-04-27T14:54:11.892Z,101832.66
2023-04-27T14:56:38.488Z,101827.44
2023-04-27T14:59:05.636Z,101838.44
2023-04-27T15:01:32.509Z,101833.31
2023-04-27T15:03:59.594Z,101853.59
2023-04-27T15:06:28.860Z,101853.00
2023-04-27T15:08:56.249Z,101857.25
2023-04-27T15:11:23.381Z,101840.84
2023-04-27T15:13:54.856Z,101840.34
2023-04-27T15:16:21.472Z,101847.78
2023-04-27T15:18:48.080Z,101847.69
2023-04-27T15:21:15.021Z,101833.56
2023-04-27T15:23:41.682Z,101838.38
2023-04-27T15:26:10.565Z,101832.66
2023-04-27T15:28:37.523Z,101825.00
2023-04-27T15:31:04.213Z,101834.16
2023-04-27T15:33:31.101Z,101835.75
2023-04-27T15:35:59.108Z,101828.78
2023-04-27T15:38:28.074Z,101829.19
2023-04-27T15:40:54.779Z,101836.38
2023-04-27T15:43:23.586Z,101822.97
2023-04-27T15:45:50.686Z,101817.38
2023-04-27T15:48:19.778Z,101821.09
2023-04-27T15:50:47.111Z,101821.09
2023-04-27T15:53:13.776Z,101826.69
2023-04-27T15:55:45.822Z,101826.44
2023-04-27T15:58:12.449Z,101821.91
2023-04-27T16:00:39.109Z,101813.09
2023-04-27T16:03:11.325Z,101807.19
2023-04-27T16:05:38.249Z,101803.22
2023-04-27T16:08:04.978Z,101790.41
2023-04-27T16:10:31.567Z,101787.50
2023-04-27T16:12:58.240Z,101783.09
2023-04-27T16:15:24.924Z,101766.59
2023-04-27T16:17:53.774Z,101777.13
2023-04-27T16:20:24.824Z,101782.69
2023-04-27T16:22:51.681Z,101777.09
2023-04-27T16:25:18.385Z,101770.84
2023-04-27T16:27:44.961Z,101773.38
2023-04-27T16:30:11.836Z,101756.81
2023-04-27T16:32:38.570Z,101746.09
2023-04-27T16:35:05.751Z,101752.16
2023-04-27T16:37:32.708Z,101741.19
2023-04-27T16:40:01.741Z,101744.84
2023-04-27T16:42:28.770Z,101748.88
2023-04-27T16:45:02.123Z,101742.56
2023-04-27T16:47:29.164Z,101747.13
2023-04-27T16:49:55.833Z,101742.38
2023-04-27T16:52:25.365Z,101746.47
2023-04-27T16:54:54.254Z,101728.63
2023-04-27T16:57:21.077Z,101734.03
2023-04-27T16:59:47.680Z,101729.59
2023-04-27T17:02:23.861Z,101738.13
2023-04-27T17:04:52.934Z,101721.88
2023-04-27T17:07:22.069Z,101727.25
2023-04-27T17:09:48.768Z,101727.56
2023-04-27T17:12:20.322Z,101724.72
2023-04-27T17:14:54.315Z,101718.66
2023-04-27T17:17:21.184Z,101714.34
2023-04-27T17:19:52.731Z,101705.63
2023-04-27T17:22:22.068Z,101719.72
2023-04-27T17:24:48.779Z,101731.59
2023-04-27T17:27:15.328Z,101718.34
2023-04-27T17:29:42.115Z,101731.03
2023-04-27T17:32:09.540Z,101723.13
2023-04-27T17:34:39.393Z,101713.19
2023-04-27T17:37:07.315Z,101724.16
2023-04-27T17:39:33.923Z,101705.13
2023-04-27T17:42:00.610Z,101712.47
2023-04-27T17:44:27.243Z,101701.97
2023-04-27T17:46:53.926Z,101683.38
2023-04-27T17:49:22.897Z,101692.50
2023-04-27T17:51:49.530Z,101690.06
2023-04-27T17:54:16.176Z,101685.16
2023-04-27T17:56:42.975Z,101686.00
2023-04-27T17:59:09.681Z,101691.50
2023-04-27T18:01:36.507Z,101689.94
2023-04-27T18:04:04.551Z,101698.56
2023-04-27T18:06:32.122Z,101693.53
2023-04-27T18:08:58.741Z,101690.66
2023-04-27T18:11:25.494Z,101698.44
2023-04-27T18:13:52.688Z,101699.03
2023-04-27T18:16:19.440Z,101703.34
2023-04-27T18:18:46.281Z,101703.78
2023-04-27T18:21:15.177Z,101694.56
2023-04-27T18:23:44.770Z,101687.66
2023-04-27T18:26:11.808Z,101696.59
2023-04-27T18:28:40.242Z,101696.72
2023-04-27T18:31:17.739Z,101692.41
2023-04-27T18:33:45.090Z,101691.69
2023-04-27T18:36:14.297Z,101691.81
2023-04-27T18:38:40.898Z,101654.06
2023-04-27T18:41:08.331Z,101684.19
2023-04-27T18:43:36.867Z,101710.00
2023-04-27T18:46:07.747Z,101704.81
2023-04-27T18:48:34.752Z,101708.81
2023-04-27T18:51:01.393Z,101704.53
2023-04-27T18:53:28.605Z,101697.72
2023-04-27T18:55:55.716Z,101696.59
2023-04-27T18:58:24.558Z,101697.16
2023-04-27T19:00:53.841Z,101683.31
2023-04-27T19:03:20.617Z,101670.44
2023-04-27T19:05:47.847Z,101693.38
2023-04-27T19:08:14.428Z,101700.84
2023-04-27T19:10:46.621Z,101700.97
2023-04-27T19:13:13.332Z,101690.91
2023-04-27T19:15:44.858Z,101705.16
2023-04-27T19:18:11.983Z,101672.59
2023-04-27T19:20:41.753Z,101697.78
2023-04-27T19:23:09.677Z,101675.19
2023-04-27T19:25:36.724Z,101682.53
2023-04-27T19:28:04.153Z,101696.94
2023-04-27T19:30:33.042Z,101695.31
2023-04-27T19:33:02.170Z,101679.75
2023-04-27T19:35:28.907Z,101677.19
2023-04-27T19:37:56.031Z,101691.56
2023-04-27T19:40:22.800Z,101685.78
2023-04-27T19:42:49.909Z,101678.50
2023-04-27T19:45:18.106Z,101684.56
2023-04-27T19:47:48.737Z,101685.88
2023-04-27T19:50:16.219Z,101684.53
2023-04-27T19:52:43.177Z,101683.81
2023-04-27T19:55:12.528Z,101675.88
2023-04-27T19:57:39.356Z,101636.06
2023-04-27T20:00:10.093Z,101661.19
2023-04-27T20:02:36.906Z,101665.91
2023-04-27T20:05:04.774Z,101653.09
2023-04-27T20:07:31.886Z,101659.25
2023-04-27T20:09:58.502Z,101656.09
2023-04-27T20:14:58.296Z,101665.66
2023-04-27T20:17:26.144Z,101657.16
2023-04-27T20:19:56.272Z,101665.63
2023-04-27T20:22:23.443Z,101667.50
2023-04-27T20:24:50.857Z,101653.97
2023-04-27T20:27:20.140Z,101650.78
2023-04-27T20:29:47.466Z,101654.66
2023-04-27T20:32:14.117Z,101644.25
2023-04-27T20:34:40.706Z,101659.72
2023-04-27T20:37:09.796Z,101651.66
2023-04-27T20:39:36.761Z,101628.44
2023-04-27T20:42:03.913Z,101645.84
2023-04-27T20:44:32.256Z,101639.13
2023-04-27T20:46:58.856Z,101628.75
2023-04-27T20:49:34.336Z,101575.09
2023-04-27T20:52:02.323Z,101602.97
2023-04-27T20:54:34.356Z,101611.47
2023-04-27T20:57:10.957Z,101615.81
2023-04-27T20:59:37.886Z,101607.88
2023-04-27T21:02:05.030Z,101601.00
2023-04-27T21:04:34.600Z,101599.09
2023-04-27T21:07:01.720Z,101595.78
2023-04-27T21:09:31.511Z,101570.41
2023-04-27T21:12:03.682Z,101557.47
2023-04-27T21:14:30.646Z,101573.00
2023-04-27T21:17:01.324Z,101570.41
2023-04-27T21:19:28.784Z,101571.31
2023-04-27T21:21:55.709Z,101524.72
2023-04-27T21:24:23.533Z,101542.34
2023-04-27T21:26:51.389Z,101551.13
2023-04-27T21:29:18.696Z,101527.66
2023-04-27T21:31:48.606Z,101508.22
2023-04-27T21:34:15.869Z,101510.53
2023-04-27T21:36:43.679Z,101534.16
2023-04-27T21:39:13.429Z,101448.44
2023-04-27T21:41:41.581Z,101501.88
2023-04-27T21:44:11.421Z,101516.28
2023-04-27T21:46:38.748Z,101443.69
2023-04-27T21:49:05.844Z,101524.97
2023-04-27T21:51:34.681Z,101504.22
2023-04-27T21:54:01.998Z,101511.72
2023-04-27T21:56:28.946Z,101470.38
2023-04-27T21:58:56.096Z,101492.38
2023-04-27T22:01:23.926Z,101474.81
2023-04-27T22:03:53.838Z,101500.50
2023-04-27T22:06:25.843Z,101515.72
2023-04-27T22:08:52.966Z,101520.44
2023-04-27T22:11:22.819Z,101516.88
2023-04-27T22:13:49.774Z,101524.03
2023-04-27T22:16:18.571Z,101452.16
2023-04-27T22:18:45.923Z,101513.06
2023-04-27T22:21:14.984Z,101485.00
2023-04-27T22:23:42.328Z,101511.41
2023-04-27T22:26:11.787Z,101490.66
2023-04-27T22:28:39.285Z,101479.72
2023-04-27T22:31:08.782Z,101502.34
2023-04-27T22:33:38.553Z,101472.66
2023-04-27T22:36:08.557Z,101454.00
2023-04-27T22:38:42.065Z,101469.09
2023-04-27T22:41:13.060Z,101460.19
2023-04-27T22:43:41.885Z,101454.53
2023-04-27T22:46:09.357Z,101422.91
2023-04-27T22:48:38.814Z,101460.38
2023-04-27T22:51:12.380Z,101466.09
2023-04-27T22:53:40.245Z,101416.81
2023-04-27T22:56:10.670Z,101453.88
2023-04-27T22:58:38.280Z,101442.13
2023-04-27T23:01:05.627Z,101458.97
2023-04-27T23:03:33.276Z,101455.63
2023-04-27T23:06:02.591Z,101455.75
2023-04-27T23:08:29.926Z,101414.41
2023-04-27T23:10:57.597Z,101419.06
2023-04-27T23:13:27.865Z,101447.59
2023-04-27T23:15:57.570Z,101416.22
2023-04-27T23:18:24.529Z,101429.91
2023-04-27T23:20:55.383Z,101440.69
2023-04-27T23:23:22.801Z,101434.09
2023-04-27T23:25:49.678Z,101414.81
2023-04-27T23:28:17.147Z,101404.41
2023-04-27T23:30:51.924Z,101385.16
2023-04-27T23:33:21.674Z,101398.50
2023-04-27T23:35:48.899Z,101345.47
2023-04-27T23:38:16.049Z,101395.19
2023-04-27T23:40:45.495Z,101374.19
2023-04-27T23:43:12.487Z,101399.25
2023-04-27T23:45:39.919Z,101388.00
2023-04-27T23:48:12.467Z,101402.00
2023-04-27T23:50:41.275Z,101391.63
2023-04-27T23:53:11.059Z,101389.75
2023-04-27T23:55:38.316Z,101390.59
2023-04-27T23:58:08.136Z,101380.72
